sensor_id;sensor_type;location;lat;lon;timestamp;P1;durP1;ratioP1;P2;durP2;ratioP2
19705;SDS011;10003;52.506;4.700;2023-07-31T00:01:28;10.40;;;3.87;;
19705;SDS011;10003;52.506;4.700;2023-07-31T00:03:57;5.20;;;2.70;;
19705;SDS011;10003;52.506;4.700;2023-07-31T00:06:26;4.23;;;3.13;;
19705;SDS011;10003;52.506;4.700;2023-07-31T00:08:55;3.07;;;1.50;;
19705;SDS011;10003;52.506;4.700;2023-07-31T00:11:23;7.67;;;3.77;;
19705;SDS011;10003;52.506;4.700;2023-07-31T00:13:52;8.23;;;2.87;;
19705;SDS011;10003;52.506;4.700;2023-07-31T00:16:21;3.50;;;2.00;;
19705;SDS011;10003;52.506;4.700;2023-07-31T00:18:49;4.10;;;2.37;;
19705;SDS011;10003;52.506;4.700;2023-07-31T00:21:18;6.30;;;2.60;;
19705;SDS011;10003;52.506;4.700;2023-07-31T00:23:48;4.77;;;1.87;;
19705;SDS011;10003;52.506;4.700;2023-07-31T00:26:16;3.80;;;2.03;;
19705;SDS011;10003;52.506;4.700;2023-07-31T00:28:45;9.50;;;4.37;;
19705;SDS011;10003;52.506;4.700;2023-07-31T00:31:13;9.60;;;3.37;;
19705;SDS011;10003;52.506;4.700;2023-07-31T00:33:42;6.57;;;2.37;;
19705;SDS011;10003;52.506;4.700;2023-07-31T00:36:10;5.73;;;2.87;;
19705;SDS011;10003;52.506;4.700;2023-07-31T00:38:39;9.10;;;4.57;;
19705;SDS011;10003;52.506;4.700;2023-07-31T00:41:09;10.27;;;3.27;;
19705;SDS011;10003;52.506;4.700;2023-07-31T00:43:37;6.10;;;3.10;;
19705;SDS011;10003;52.506;4.700;2023-07-31T00:46:06;9.30;;;3.40;;
19705;SDS011;10003;52.506;4.700;2023-07-31T00:48:35;14.53;;;4.67;;
19705;SDS011;10003;52.506;4.700;2023-07-31T00:51:03;6.70;;;3.63;;
19705;SDS011;10003;52.506;4.700;2023-07-31T00:53:32;6.00;;;2.93;;
19705;SDS011;10003;52.506;4.700;2023-07-31T00:56:01;4.27;;;3.03;;
19705;SDS011;10003;52.506;4.700;2023-07-31T00:58:32;2.60;;;2.40;;
19705;SDS011;10003;52.506;4.700;2023-07-31T01:01:00;4.40;;;2.30;;
19705;SDS011;10003;52.506;4.700;2023-07-31T01:03:28;3.23;;;2.33;;
19705;SDS011;10003;52.506;4.700;2023-07-31T01:06:01;13.23;;;5.23;;
19705;SDS011;10003;52.506;4.700;2023-07-31T01:08:33;1.60;;;1.43;;
19705;SDS011;10003;52.506;4.700;2023-07-31T01:11:07;2.00;;;1.27;;
19705;SDS011;10003;52.506;4.700;2023-07-31T01:13:39;1.97;;;1.57;;
19705;SDS011;10003;52.506;4.700;2023-07-31T01:16:08;2.93;;;2.23;;
19705;SDS011;10003;52.506;4.700;2023-07-31T01:18:36;5.07;;;4.10;;
19705;SDS011;10003;52.506;4.700;2023-07-31T01:21:07;5.63;;;3.60;;
19705;SDS011;10003;52.506;4.700;2023-07-31T01:23:51;9.93;;;3.67;;
19705;SDS011;10003;52.506;4.700;2023-07-31T01:26:26;4.47;;;2.10;;
19705;SDS011;10003;52.506;4.700;2023-07-31T01:28:56;5.87;;;2.20;;
19705;SDS011;10003;52.506;4.700;2023-07-31T01:31:27;7.87;;;3.60;;
19705;SDS011;10003;52.506;4.700;2023-07-31T01:33:57;7.00;;;4.67;;
19705;SDS011;10003;52.506;4.700;2023-07-31T01:36:27;14.67;;;4.60;;
19705;SDS011;10003;52.506;4.700;2023-07-31T01:38:57;9.70;;;4.00;;
19705;SDS011;10003;52.506;4.700;2023-07-31T01:41:28;5.43;;;3.20;;
19705;SDS011;10003;52.506;4.700;2023-07-31T01:43:56;8.93;;;2.00;;
19705;SDS011;10003;52.506;4.700;2023-07-31T01:46:25;0.30;;;0.30;;
19705;SDS011;10003;52.506;4.700;2023-07-31T01:48:53;0.30;;;0.30;;
19705;SDS011;10003;52.506;4.700;2023-07-31T01:51:22;0.30;;;0.30;;
19705;SDS011;10003;52.506;4.700;2023-07-31T01:53:51;0.30;;;0.30;;
19705;SDS011;10003;52.506;4.700;2023-07-31T01:56:19;0.30;;;0.30;;
19705;SDS011;10003;52.506;4.700;2023-07-31T01:58:49;0.30;;;0.30;;
19705;SDS011;10003;52.506;4.700;2023-07-31T02:01:18;0.30;;;0.30;;
19705;SDS011;10003;52.506;4.700;2023-07-31T02:03:50;0.30;;;0.30;;
19705;SDS011;10003;52.506;4.700;2023-07-31T02:06:19;0.33;;;0.33;;
19705;SDS011;10003;52.506;4.700;2023-07-31T02:08:48;0.30;;;0.30;;
19705;SDS011;10003;52.506;4.700;2023-07-31T02:11:17;0.30;;;0.30;;
19705;SDS011;10003;52.506;4.700;2023-07-31T02:13:46;0.30;;;0.30;;
19705;SDS011;10003;52.506;4.700;2023-07-31T02:16:16;0.30;;;0.30;;
19705;SDS011;10003;52.506;4.700;2023-07-31T02:18:45;0.30;;;0.30;;
19705;SDS011;10003;52.506;4.700;2023-07-31T02:21:13;0.30;;;0.30;;
19705;SDS011;10003;52.506;4.700;2023-07-31T02:23:42;0.30;;;0.30;;
19705;SDS011;10003;52.506;4.700;2023-07-31T02:26:10;0.30;;;0.30;;
19705;SDS011;10003;52.506;4.700;2023-07-31T02:28:39;0.30;;;0.30;;
19705;SDS011;10003;52.506;4.700;2023-07-31T02:31:09;0.30;;;0.30;;
19705;SDS011;10003;52.506;4.700;2023-07-31T02:33:39;0.30;;;0.30;;
19705;SDS011;10003;52.506;4.700;2023-07-31T02:36:07;0.30;;;0.30;;
19705;SDS011;10003;52.506;4.700;2023-07-31T02:38:36;0.30;;;0.30;;
19705;SDS011;10003;52.506;4.700;2023-07-31T02:41:04;0.30;;;0.30;;
19705;SDS011;10003;52.506;4.700;2023-07-31T02:43:33;0.30;;;0.30;;
19705;SDS011;10003;52.506;4.700;2023-07-31T02:46:01;0.30;;;0.30;;
19705;SDS011;10003;52.506;4.700;2023-07-31T02:48:30;0.23;;;0.23;;
19705;SDS011;10003;52.506;4.700;2023-07-31T02:51:00;0.20;;;0.20;;
19705;SDS011;10003;52.506;4.700;2023-07-31T02:53:29;0.50;;;0.50;;
19705;SDS011;10003;52.506;4.700;2023-07-31T02:55:57;0.30;;;0.30;;
19705;SDS011;10003;52.506;4.700;2023-07-31T02:58:26;0.30;;;0.30;;
19705;SDS011;10003;52.506;4.700;2023-07-31T03:00:54;0.30;;;0.30;;
19705;SDS011;10003;52.506;4.700;2023-07-31T03:03:23;0.30;;;0.30;;
19705;SDS011;10003;52.506;4.700;2023-07-31T03:05:51;0.37;;;0.37;;
19705;SDS011;10003;52.506;4.700;2023-07-31T03:08:21;0.30;;;0.30;;
19705;SDS011;10003;52.506;4.700;2023-07-31T03:10:50;0.30;;;0.30;;
19705;SDS011;10003;52.506;4.700;2023-07-31T03:13:18;0.30;;;0.30;;
19705;SDS011;10003;52.506;4.700;2023-07-31T03:15:47;0.30;;;0.30;;
19705;SDS011;10003;52.506;4.700;2023-07-31T03:18:15;0.20;;;0.20;;
19705;SDS011;10003;52.506;4.700;2023-07-31T03:20:44;0.30;;;0.30;;
19705;SDS011;10003;52.506;4.700;2023-07-31T03:23:12;2.30;;;2.23;;
19705;SDS011;10003;52.506;4.700;2023-07-31T03:25:52;0.20;;;0.20;;
19705;SDS011;10003;52.506;4.700;2023-07-31T03:28:23;0.30;;;0.30;;
19705;SDS011;10003;52.506;4.700;2023-07-31T03:30:52;0.30;;;0.30;;
19705;SDS011;10003;52.506;4.700;2023-07-31T03:33:20;0.30;;;0.30;;
19705;SDS011;10003;52.506;4.700;2023-07-31T03:35:49;0.30;;;0.30;;
19705;SDS011;10003;52.506;4.700;2023-07-31T03:38:17;0.40;;;0.40;;
19705;SDS011;10003;52.506;4.700;2023-07-31T03:40:47;0.30;;;0.30;;
19705;SDS011;10003;52.506;4.700;2023-07-31T03:43:16;0.30;;;0.30;;
19705;SDS011;10003;52.506;4.700;2023-07-31T03:45:44;0.60;;;0.60;;
19705;SDS011;10003;52.506;4.700;2023-07-31T03:48:13;0.30;;;0.30;;
19705;SDS011;10003;52.506;4.700;2023-07-31T03:50:42;0.30;;;0.30;;
19705;SDS011;10003;52.506;4.700;2023-07-31T03:53:11;0.30;;;0.30;;
19705;SDS011;10003;52.506;4.700;2023-07-31T03:55:39;0.30;;;0.30;;
19705;SDS011;10003;52.506;4.700;2023-07-31T03:58:09;0.30;;;0.30;;
19705;SDS011;10003;52.506;4.700;2023-07-31T04:00:39;0.30;;;0.30;;
19705;SDS011;10003;52.506;4.700;2023-07-31T04:03:08;0.30;;;0.30;;
19705;SDS011;10003;52.506;4.700;2023-07-31T04:05:37;0.30;;;0.30;;
19705;SDS011;10003;52.506;4.700;2023-07-31T04:08:07;0.30;;;0.30;;
19705;SDS011;10003;52.506;4.700;2023-07-31T04:10:36;0.30;;;0.30;;
19705;SDS011;10003;52.506;4.700;2023-07-31T04:13:04;0.30;;;0.30;;
19705;SDS011;10003;52.506;4.700;2023-07-31T04:15:34;0.30;;;0.30;;
19705;SDS011;10003;52.506;4.700;2023-07-31T04:18:04;0.30;;;0.30;;
19705;SDS011;10003;52.506;4.700;2023-07-31T04:20:32;0.30;;;0.30;;
19705;SDS011;10003;52.506;4.700;2023-07-31T04:23:01;0.30;;;0.30;;
19705;SDS011;10003;52.506;4.700;2023-07-31T04:25:29;0.30;;;0.30;;
19705;SDS011;10003;52.506;4.700;2023-07-31T04:27:58;0.30;;;0.30;;
19705;SDS011;10003;52.506;4.700;2023-07-31T04:30:26;0.30;;;0.30;;
19705;SDS011;10003;52.506;4.700;2023-07-31T04:32:56;0.30;;;0.30;;
19705;SDS011;10003;52.506;4.700;2023-07-31T04:35:25;0.30;;;0.30;;
19705;SDS011;10003;52.506;4.700;2023-07-31T04:37:53;0.30;;;0.30;;
19705;SDS011;10003;52.506;4.700;2023-07-31T04:40:22;0.30;;;0.30;;
19705;SDS011;10003;52.506;4.700;2023-07-31T04:42:50;0.30;;;0.30;;
19705;SDS011;10003;52.506;4.700;2023-07-31T04:45:19;0.20;;;0.20;;
19705;SDS011;10003;52.506;4.700;2023-07-31T04:47:47;0.40;;;0.40;;
19705;SDS011;10003;52.506;4.700;2023-07-31T04:50:17;0.30;;;0.30;;
19705;SDS011;10003;52.506;4.700;2023-07-31T04:52:46;0.30;;;0.30;;
19705;SDS011;10003;52.506;4.700;2023-07-31T04:55:14;0.20;;;0.20;;
19705;SDS011;10003;52.506;4.700;2023-07-31T04:57:43;0.30;;;0.30;;
19705;SDS011;10003;52.506;4.700;2023-07-31T05:00:11;0.30;;;0.30;;
19705;SDS011;10003;52.506;4.700;2023-07-31T05:02:40;0.30;;;0.30;;
19705;SDS011;10003;52.506;4.700;2023-07-31T05:05:08;0.20;;;0.20;;
19705;SDS011;10003;52.506;4.700;2023-07-31T05:07:38;0.30;;;0.30;;
19705;SDS011;10003;52.506;4.700;2023-07-31T05:10:07;0.30;;;0.30;;
19705;SDS011;10003;52.506;4.700;2023-07-31T05:12:36;0.30;;;0.30;;
19705;SDS011;10003;52.506;4.700;2023-07-31T05:15:05;0.20;;;0.20;;
19705;SDS011;10003;52.506;4.700;2023-07-31T05:17:33;0.30;;;0.30;;
19705;SDS011;10003;52.506;4.700;2023-07-31T05:20:02;0.30;;;0.30;;
19705;SDS011;10003;52.506;4.700;2023-07-31T05:22:30;0.30;;;0.30;;
19705;SDS011;10003;52.506;4.700;2023-07-31T05:25:00;0.30;;;0.30;;
19705;SDS011;10003;52.506;4.700;2023-07-31T05:27:29;0.30;;;0.30;;
19705;SDS011;10003;52.506;4.700;2023-07-31T05:29:58;0.30;;;0.30;;
19705;SDS011;10003;52.506;4.700;2023-07-31T05:32:26;0.30;;;0.30;;
19705;SDS011;10003;52.506;4.700;2023-07-31T05:34:55;0.30;;;0.30;;
19705;SDS011;10003;52.506;4.700;2023-07-31T05:37:23;0.30;;;0.30;;
19705;SDS011;10003;52.506;4.700;2023-07-31T05:39:52;0.30;;;0.30;;
19705;SDS011;10003;52.506;4.700;2023-07-31T05:42:22;0.30;;;0.30;;
19705;SDS011;10003;52.506;4.700;2023-07-31T05:44:51;0.30;;;0.30;;
19705;SDS011;10003;52.506;4.700;2023-07-31T05:47:19;0.20;;;0.20;;
19705;SDS011;10003;52.506;4.700;2023-07-31T05:49:48;0.20;;;0.20;;
19705;SDS011;10003;52.506;4.700;2023-07-31T05:52:18;0.20;;;0.20;;
19705;SDS011;10003;52.506;4.700;2023-07-31T05:54:47;0.20;;;0.20;;
19705;SDS011;10003;52.506;4.700;2023-07-31T05:57:16;0.30;;;0.30;;
19705;SDS011;10003;52.506;4.700;2023-07-31T05:59:46;0.30;;;0.30;;
19705;SDS011;10003;52.506;4.700;2023-07-31T06:02:15;0.20;;;0.20;;
19705;SDS011;10003;52.506;4.700;2023-07-31T06:04:43;0.20;;;0.20;;
19705;SDS011;10003;52.506;4.700;2023-07-31T06:07:12;0.30;;;0.30;;
19705;SDS011;10003;52.506;4.700;2023-07-31T06:09:41;0.30;;;0.30;;
19705;SDS011;10003;52.506;4.700;2023-07-31T06:12:10;0.30;;;0.30;;
19705;SDS011;10003;52.506;4.700;2023-07-31T06:14:39;0.30;;;0.30;;
19705;SDS011;10003;52.506;4.700;2023-07-31T06:17:09;0.30;;;0.30;;
19705;SDS011;10003;52.506;4.700;2023-07-31T06:19:39;0.30;;;0.30;;
19705;SDS011;10003;52.506;4.700;2023-07-31T06:22:07;0.20;;;0.20;;
19705;SDS011;10003;52.506;4.700;2023-07-31T06:24:36;0.30;;;0.30;;
19705;SDS011;10003;52.506;4.700;2023-07-31T06:27:05;0.30;;;0.30;;
19705;SDS011;10003;52.506;4.700;2023-07-31T06:29:35;0.30;;;0.30;;
19705;SDS011;10003;52.506;4.700;2023-07-31T06:32:03;0.30;;;0.30;;
19705;SDS011;10003;52.506;4.700;2023-07-31T06:34:33;0.30;;;0.30;;
19705;SDS011;10003;52.506;4.700;2023-07-31T06:37:03;0.30;;;0.30;;
19705;SDS011;10003;52.506;4.700;2023-07-31T06:39:32;0.20;;;0.20;;
19705;SDS011;10003;52.506;4.700;2023-07-31T06:42:01;0.30;;;0.30;;
19705;SDS011;10003;52.506;4.700;2023-07-31T06:44:29;0.30;;;0.30;;
19705;SDS011;10003;52.506;4.700;2023-07-31T06:46:58;0.30;;;0.30;;
19705;SDS011;10003;52.506;4.700;2023-07-31T06:49:28;0.20;;;0.20;;
19705;SDS011;10003;52.506;4.700;2023-07-31T06:51:58;0.23;;;0.23;;
19705;SDS011;10003;52.506;4.700;2023-07-31T06:54:27;0.30;;;0.30;;
19705;SDS011;10003;52.506;4.700;2023-07-31T06:56:55;0.20;;;0.20;;
19705;SDS011;10003;52.506;4.700;2023-07-31T06:59:24;0.30;;;0.30;;
19705;SDS011;10003;52.506;4.700;2023-07-31T07:01:53;0.20;;;0.20;;
19705;SDS011;10003;52.506;4.700;2023-07-31T07:04:22;0.20;;;0.20;;
19705;SDS011;10003;52.506;4.700;2023-07-31T07:06:53;0.20;;;0.20;;
19705;SDS011;10003;52.506;4.700;2023-07-31T07:09:23;0.20;;;0.20;;
19705;SDS011;10003;52.506;4.700;2023-07-31T07:11:52;0.20;;;0.20;;
19705;SDS011;10003;52.506;4.700;2023-07-31T07:14:20;0.30;;;0.30;;
19705;SDS011;10003;52.506;4.700;2023-07-31T07:16:57;0.27;;;0.27;;
19705;SDS011;10003;52.506;4.700;2023-07-31T07:19:25;0.43;;;0.43;;
19705;SDS011;10003;52.506;4.700;2023-07-31T07:21:54;0.30;;;0.30;;
19705;SDS011;10003;52.506;4.700;2023-07-31T07:24:24;0.20;;;0.20;;
19705;SDS011;10003;52.506;4.700;2023-07-31T07:26:54;0.20;;;0.20;;
19705;SDS011;10003;52.506;4.700;2023-07-31T07:29:23;0.30;;;0.30;;
19705;SDS011;10003;52.506;4.700;2023-07-31T07:31:52;0.20;;;0.20;;
19705;SDS011;10003;52.506;4.700;2023-07-31T07:34:22;0.20;;;0.20;;
19705;SDS011;10003;52.506;4.700;2023-07-31T07:36:50;0.30;;;0.30;;
19705;SDS011;10003;52.506;4.700;2023-07-31T07:39:24;0.20;;;0.20;;
19705;SDS011;10003;52.506;4.700;2023-07-31T07:41:53;0.30;;;0.30;;
19705;SDS011;10003;52.506;4.700;2023-07-31T07:44:21;0.20;;;0.20;;
19705;SDS011;10003;52.506;4.700;2023-07-31T07:46:51;0.20;;;0.20;;
19705;SDS011;10003;52.506;4.700;2023-07-31T07:49:20;0.30;;;0.30;;
19705;SDS011;10003;52.506;4.700;2023-07-31T07:51:49;0.30;;;0.30;;
19705;SDS011;10003;52.506;4.700;2023-07-31T07:54:18;0.20;;;0.20;;
19705;SDS011;10003;52.506;4.700;2023-07-31T07:56:49;0.30;;;0.30;;
19705;SDS011;10003;52.506;4.700;2023-07-31T07:59:17;0.20;;;0.20;;
19705;SDS011;10003;52.506;4.700;2023-07-31T08:01:46;0.30;;;0.30;;
19705;SDS011;10003;52.506;4.700;2023-07-31T08:04:15;7.73;;;3.37;;
19705;SDS011;10003;52.506;4.700;2023-07-31T08:06:43;9.77;;;3.03;;
19705;SDS011;10003;52.506;4.700;2023-07-31T08:09:12;7.23;;;3.63;;
19705;SDS011;10003;52.506;4.700;2023-07-31T08:11:41;7.80;;;1.90;;
19705;SDS011;10003;52.506;4.700;2023-07-31T08:14:11;7.80;;;4.77;;
19705;SDS011;10003;52.506;4.700;2023-07-31T08:16:40;12.07;;;4.43;;
19705;SDS011;10003;52.506;4.700;2023-07-31T08:19:09;10.90;;;3.10;;
19705;SDS011;10003;52.506;4.700;2023-07-31T08:21:38;8.13;;;3.67;;
19705;SDS011;10003;52.506;4.700;2023-07-31T08:24:10;11.63;;;3.20;;
19705;SDS011;10003;52.506;4.700;2023-07-31T08:26:38;12.43;;;4.83;;
19705;SDS011;10003;52.506;4.700;2023-07-31T08:29:07;8.70;;;3.13;;
19705;SDS011;10003;52.506;4.700;2023-07-31T08:31:39;1.60;;;1.47;;
19705;SDS011;10003;52.506;4.700;2023-07-31T08:34:08;12.93;;;4.80;;
19705;SDS011;10003;52.506;4.700;2023-07-31T08:36:39;15.97;;;3.80;;
19705;SDS011;10003;52.506;4.700;2023-07-31T08:39:10;7.80;;;3.87;;
19705;SDS011;10003;52.506;4.700;2023-07-31T08:41:38;4.50;;;2.07;;
19705;SDS011;10003;52.506;4.700;2023-07-31T08:44:07;5.00;;;2.67;;
19705;SDS011;10003;52.506;4.700;2023-07-31T08:46:36;4.90;;;1.77;;
19705;SDS011;10003;52.506;4.700;2023-07-31T08:49:07;10.57;;;3.77;;
19705;SDS011;10003;52.506;4.700;2023-07-31T08:51:37;7.47;;;3.43;;
19705;SDS011;10003;52.506;4.700;2023-07-31T08:54:07;4.67;;;2.07;;
19705;SDS011;10003;52.506;4.700;2023-07-31T08:56:35;10.07;;;3.83;;
19705;SDS011;10003;52.506;4.700;2023-07-31T08:59:05;11.13;;;3.97;;
19705;SDS011;10003;52.506;4.700;2023-07-31T09:01:36;6.97;;;3.57;;
19705;SDS011;10003;52.506;4.700;2023-07-31T09:04:08;8.50;;;2.50;;
19705;SDS011;10003;52.506;4.700;2023-07-31T09:06:38;10.23;;;3.60;;
19705;SDS011;10003;52.506;4.700;2023-07-31T09:09:07;3.20;;;1.70;;
19705;SDS011;10003;52.506;4.700;2023-07-31T09:11:36;10.63;;;3.37;;
19705;SDS011;10003;52.506;4.700;2023-07-31T09:14:05;16.80;;;3.83;;
19705;SDS011;10003;52.506;4.700;2023-07-31T09:16:51;3.93;;;2.67;;
19705;SDS011;10003;52.506;4.700;2023-07-31T09:19:29;7.37;;;2.90;;
19705;SDS011;10003;52.506;4.700;2023-07-31T09:21:57;2.87;;;2.20;;
19705;SDS011;10003;52.506;4.700;2023-07-31T09:24:27;9.03;;;2.57;;
19705;SDS011;10003;52.506;4.700;2023-07-31T09:26:56;8.03;;;3.70;;
19705;SDS011;10003;52.506;4.700;2023-07-31T09:29:26;3.83;;;2.33;;
19705;SDS011;10003;52.506;4.700;2023-07-31T09:31:56;3.10;;;1.20;;
19705;SDS011;10003;52.506;4.700;2023-07-31T09:34:30;9.87;;;2.63;;
19705;SDS011;10003;52.506;4.700;2023-07-31T09:37:05;6.60;;;3.60;;
19705;SDS011;10003;52.506;4.700;2023-07-31T09:39:35;6.80;;;2.43;;
19705;SDS011;10003;52.506;4.700;2023-07-31T09:42:15;10.27;;;3.40;;
19705;SDS011;10003;52.506;4.700;2023-07-31T09:44:57;3.33;;;2.03;;
19705;SDS011;10003;52.506;4.700;2023-07-31T09:47:34;14.27;;;7.33;;
19705;SDS011;10003;52.506;4.700;2023-07-31T09:50:07;7.43;;;2.87;;
19705;SDS011;10003;52.506;4.700;2023-07-31T09:52:38;11.07;;;2.43;;
19705;SDS011;10003;52.506;4.700;2023-07-31T09:55:07;3.10;;;1.57;;
19705;SDS011;10003;52.506;4.700;2023-07-31T09:57:37;8.83;;;3.17;;
19705;SDS011;10003;52.506;4.700;2023-07-31T10:00:07;6.77;;;2.60;;
19705;SDS011;10003;52.506;4.700;2023-07-31T10:02:42;7.87;;;2.50;;
19705;SDS011;10003;52.506;4.700;2023-07-31T10:05:17;6.53;;;2.57;;
19705;SDS011;10003;52.506;4.700;2023-07-31T10:07:49;3.93;;;1.83;;
19705;SDS011;10003;52.506;4.700;2023-07-31T10:10:20;4.23;;;2.60;;
19705;SDS011;10003;52.506;4.700;2023-07-31T10:12:50;6.70;;;2.13;;
19705;SDS011;10003;52.506;4.700;2023-07-31T10:15:22;16.33;;;4.60;;
19705;SDS011;10003;52.506;4.700;2023-07-31T10:17:51;6.40;;;2.20;;
19705;SDS011;10003;52.506;4.700;2023-07-31T10:20:22;4.73;;;2.40;;
19705;SDS011;10003;52.506;4.700;2023-07-31T10:22:54;5.07;;;1.73;;
19705;SDS011;10003;52.506;4.700;2023-07-31T10:25:23;9.17;;;3.43;;
19705;SDS011;10003;52.506;4.700;2023-07-31T10:27:54;7.27;;;2.03;;
19705;SDS011;10003;52.506;4.700;2023-07-31T10:30:24;6.23;;;2.53;;
19705;SDS011;10003;52.506;4.700;2023-07-31T10:32:54;2.97;;;1.23;;
19705;SDS011;10003;52.506;4.700;2023-07-31T10:35:26;7.20;;;2.30;;
19705;SDS011;10003;52.506;4.700;2023-07-31T10:37:55;3.63;;;1.83;;
19705;SDS011;10003;52.506;4.700;2023-07-31T10:40:40;6.50;;;2.57;;
19705;SDS011;10003;52.506;4.700;2023-07-31T10:43:23;8.07;;;2.60;;
19705;SDS011;10003;52.506;4.700;2023-07-31T10:45:53;6.80;;;3.03;;
19705;SDS011;10003;52.506;4.700;2023-07-31T10:48:22;11.17;;;2.53;;
19705;SDS011;10003;52.506;4.700;2023-07-31T10:50:55;3.20;;;1.70;;
19705;SDS011;10003;52.506;4.700;2023-07-31T10:53:24;2.90;;;1.20;;
19705;SDS011;10003;52.506;4.700;2023-07-31T10:55:53;5.63;;;1.60;;
19705;SDS011;10003;52.506;4.700;2023-07-31T10:58:26;6.03;;;3.00;;
19705;SDS011;10003;52.506;4.700;2023-07-31T11:00:55;9.67;;;3.27;;
19705;SDS011;10003;52.506;4.700;2023-07-31T11:03:25;5.13;;;2.70;;
19705;SDS011;10003;52.506;4.700;2023-07-31T11:06:00;7.83;;;4.03;;
19705;SDS011;10003;52.506;4.700;2023-07-31T11:08:30;2.80;;;1.40;;
19705;SDS011;10003;52.506;4.700;2023-07-31T11:11:06;4.53;;;2.03;;
19705;SDS011;10003;52.506;4.700;2023-07-31T11:13:42;7.60;;;2.67;;
19705;SDS011;10003;52.506;4.700;2023-07-31T11:16:11;3.73;;;1.60;;
19705;SDS011;10003;52.506;4.700;2023-07-31T11:18:40;3.67;;;2.60;;
19705;SDS011;10003;52.506;4.700;2023-07-31T11:21:13;12.13;;;2.00;;
19705;SDS011;10003;52.506;4.700;2023-07-31T11:23:45;3.03;;;1.50;;
19705;SDS011;10003;52.506;4.700;2023-07-31T11:26:14;7.20;;;2.40;;
19705;SDS011;10003;52.506;4.700;2023-07-31T11:28:43;6.57;;;3.17;;
19705;SDS011;10003;52.506;4.700;2023-07-31T11:31:11;5.67;;;2.37;;
19705;SDS011;10003;52.506;4.700;2023-07-31T11:33:42;8.80;;;2.23;;
19705;SDS011;10003;52.506;4.700;2023-07-31T11:36:15;6.07;;;2.00;;
19705;SDS011;10003;52.506;4.700;2023-07-31T11:38:44;12.07;;;2.27;;
19705;SDS011;10003;52.506;4.700;2023-07-31T11:41:15;9.23;;;2.80;;
19705;SDS011;10003;52.506;4.700;2023-07-31T11:43:44;9.50;;;2.87;;
19705;SDS011;10003;52.506;4.700;2023-07-31T11:46:14;2.40;;;1.50;;
19705;SDS011;10003;52.506;4.700;2023-07-31T11:48:42;10.33;;;2.97;;
19705;SDS011;10003;52.506;4.700;2023-07-31T11:51:12;5.80;;;2.33;;
19705;SDS011;10003;52.506;4.700;2023-07-31T11:53:43;2.73;;;1.63;;
19705;SDS011;10003;52.506;4.700;2023-07-31T11:56:13;5.07;;;1.67;;
19705;SDS011;10003;52.506;4.700;2023-07-31T11:58:42;7.90;;;1.90;;
19705;SDS011;10003;52.506;4.700;2023-07-31T12:01:11;5.70;;;1.77;;
19705;SDS011;10003;52.506;4.700;2023-07-31T12:03:43;2.77;;;1.93;;
19705;SDS011;10003;52.506;4.700;2023-07-31T12:06:14;6.33;;;1.67;;
19705;SDS011;10003;52.506;4.700;2023-07-31T12:08:44;6.93;;;2.30;;
19705;SDS011;10003;52.506;4.700;2023-07-31T12:11:16;5.23;;;1.63;;
19705;SDS011;10003;52.506;4.700;2023-07-31T12:13:48;8.67;;;2.07;;
19705;SDS011;10003;52.506;4.700;2023-07-31T12:16:16;4.77;;;1.43;;
19705;SDS011;10003;52.506;4.700;2023-07-31T12:18:45;4.43;;;1.20;;
19705;SDS011;10003;52.506;4.700;2023-07-31T12:21:13;2.40;;;1.20;;
19705;SDS011;10003;52.506;4.700;2023-07-31T12:23:46;2.17;;;1.57;;
19705;SDS011;10003;52.506;4.700;2023-07-31T12:26:17;4.27;;;1.90;;
19705;SDS011;10003;52.506;4.700;2023-07-31T12:28:47;3.33;;;1.50;;
19705;SDS011;10003;52.506;4.700;2023-07-31T12:31:16;5.60;;;2.13;;
19705;SDS011;10003;52.506;4.700;2023-07-31T12:33:46;3.23;;;1.63;;
19705;SDS011;10003;52.506;4.700;2023-07-31T12:36:16;4.93;;;2.17;;
19705;SDS011;10003;52.506;4.700;2023-07-31T12:38:46;4.90;;;2.13;;
19705;SDS011;10003;52.506;4.700;2023-07-31T12:41:15;8.07;;;2.47;;
19705;SDS011;10003;52.506;4.700;2023-07-31T12:43:44;4.20;;;1.57;;
19705;SDS011;10003;52.506;4.700;2023-07-31T12:46:15;3.33;;;1.67;;
19705;SDS011;10003;52.506;4.700;2023-07-31T12:48:46;5.50;;;3.23;;
19705;SDS011;10003;52.506;4.700;2023-07-31T12:51:14;4.23;;;1.93;;
19705;SDS011;10003;52.506;4.700;2023-07-31T12:53:44;6.87;;;3.70;;
19705;SDS011;10003;52.506;4.700;2023-07-31T12:56:17;3.90;;;1.73;;
19705;SDS011;10003;52.506;4.700;2023-07-31T12:58:46;5.73;;;1.83;;
19705;SDS011;10003;52.506;4.700;2023-07-31T13:01:14;5.47;;;2.97;;
19705;SDS011;10003;52.506;4.700;2023-07-31T13:03:43;7.73;;;2.50;;
19705;SDS011;10003;52.506;4.700;2023-07-31T13:06:12;5.60;;;1.73;;
19705;SDS011;10003;52.506;4.700;2023-07-31T13:08:43;4.40;;;1.50;;
19705;SDS011;10003;52.506;4.700;2023-07-31T13:11:11;7.47;;;2.20;;
19705;SDS011;10003;52.506;4.700;2023-07-31T13:13:41;6.33;;;1.60;;
19705;SDS011;10003;52.506;4.700;2023-07-31T13:16:10;6.77;;;2.80;;
19705;SDS011;10003;52.506;4.700;2023-07-31T13:18:40;5.20;;;1.77;;
19705;SDS011;10003;52.506;4.700;2023-07-31T13:21:08;4.40;;;1.70;;
19705;SDS011;10003;52.506;4.700;2023-07-31T13:23:37;4.90;;;1.70;;
19705;SDS011;10003;52.506;4.700;2023-07-31T13:26:06;1.67;;;0.93;;
19705;SDS011;10003;52.506;4.700;2023-07-31T13:28:34;4.30;;;2.10;;
19705;SDS011;10003;52.506;4.700;2023-07-31T13:31:04;2.57;;;1.37;;
19705;SDS011;10003;52.506;4.700;2023-07-31T13:33:33;7.30;;;1.87;;
19705;SDS011;10003;52.506;4.700;2023-07-31T13:36:07;1.43;;;0.83;;
19705;SDS011;10003;52.506;4.700;2023-07-31T13:38:36;3.23;;;1.63;;
19705;SDS011;10003;52.506;4.700;2023-07-31T13:41:04;0.60;;;0.53;;
19705;SDS011;10003;52.506;4.700;2023-07-31T13:43:33;3.93;;;1.13;;
19705;SDS011;10003;52.506;4.700;2023-07-31T13:46:03;2.33;;;1.17;;
19705;SDS011;10003;52.506;4.700;2023-07-31T13:48:35;2.87;;;0.80;;
19705;SDS011;10003;52.506;4.700;2023-07-31T13:51:03;1.33;;;1.23;;
19705;SDS011;10003;52.506;4.700;2023-07-31T13:53:32;1.77;;;1.00;;
19705;SDS011;10003;52.506;4.700;2023-07-31T13:56:01;4.90;;;1.20;;
19705;SDS011;10003;52.506;4.700;2023-07-31T13:58:32;2.00;;;1.67;;
19705;SDS011;10003;52.506;4.700;2023-07-31T14:01:00;1.87;;;1.77;;
19705;SDS011;10003;52.506;4.700;2023-07-31T14:03:30;0.50;;;0.50;;
19705;SDS011;10003;52.506;4.700;2023-07-31T14:06:01;5.33;;;1.50;;
19705;SDS011;10003;52.506;4.700;2023-07-31T14:08:30;2.77;;;1.37;;
19705;SDS011;10003;52.506;4.700;2023-07-31T14:10:58;1.60;;;1.00;;
19705;SDS011;10003;52.506;4.700;2023-07-31T14:13:27;2.13;;;1.63;;
19705;SDS011;10003;52.506;4.700;2023-07-31T14:15:56;6.33;;;2.67;;
19705;SDS011;10003;52.506;4.700;2023-07-31T14:18:24;4.90;;;2.17;;
19705;SDS011;10003;52.506;4.700;2023-07-31T14:20:53;6.43;;;2.50;;
19705;SDS011;10003;52.506;4.700;2023-07-31T14:23:24;7.37;;;3.57;;
19705;SDS011;10003;52.506;4.700;2023-07-31T14:25:52;9.73;;;3.37;;
19705;SDS011;10003;52.506;4.700;2023-07-31T14:28:21;3.40;;;1.53;;
19705;SDS011;10003;52.506;4.700;2023-07-31T14:30:49;4.60;;;3.03;;
19705;SDS011;10003;52.506;4.700;2023-07-31T14:33:18;5.77;;;2.03;;
19705;SDS011;10003;52.506;4.700;2023-07-31T14:35:47;6.97;;;1.87;;
19705;SDS011;10003;52.506;4.700;2023-07-31T14:38:15;2.80;;;1.27;;
19705;SDS011;10003;52.506;4.700;2023-07-31T14:40:45;2.07;;;1.33;;
19705;SDS011;10003;52.506;4.700;2023-07-31T14:43:14;3.43;;;1.90;;
19705;SDS011;10003;52.506;4.700;2023-07-31T14:45:43;3.70;;;1.43;;
19705;SDS011;10003;52.506;4.700;2023-07-31T14:48:13;20.73;;;1.93;;
19705;SDS011;10003;52.506;4.700;2023-07-31T14:50:41;5.73;;;2.07;;
19705;SDS011;10003;52.506;4.700;2023-07-31T14:53:10;9.90;;;2.07;;
19705;SDS011;10003;52.506;4.700;2023-07-31T14:55:38;5.53;;;1.53;;
19705;SDS011;10003;52.506;4.700;2023-07-31T14:58:08;4.10;;;1.57;;
19705;SDS011;10003;52.506;4.700;2023-07-31T15:00:38;8.00;;;1.67;;